Time;durP1;ratioP1;P1;durP2;ratioP2;P2;SDS_P1;SDS_P2;PMS_P1;PMS_P2;Temp;Humidity;BMP_temperature;BMP_pressure;BME280_temperature;BME280_humidity;BME280_pressure;Samples;Min_cycle;Max_cycle;Signal;HPM_P1;HPM_P2
2023/07/02 00:01:46;;;;;;;11.48;6.28;;;15.40;90.00;;;;;;5013341;28;20517;-87
2023/07/02 00:04:15;;;;;;;9.55;5.55;;;15.50;90.00;;;;;;5013118;28;20197;-87
2023/07/02 00:06:48;;;;;;;12.23;7.25;;;15.50;89.90;;;;;;4996069;28;20239;-87
2023/07/02 00:09:14;;;;;;;8.25;6.43;;;15.50;89.70;;;;;;5013245;28;20547;-88
2023/07/02 00:11:42;;;;;;;8.50;6.93;;;15.50;89.40;;;;;;4996504;28;20177;-87
2023/07/02 00:14:08;;;;;;;13.27;7.43;;;15.60;89.40;;;;;;4996157;28;20288;-87
2023/07/02 00:16:39;;;;;;;14.95;6.75;;;15.60;89.10;;;;;;4995537;28;20199;-88
2023/07/02 00:19:06;;;;;;;8.77;6.32;;;15.60;89.30;;;;;;4995638;28;20173;-88
2023/07/02 00:21:32;;;;;;;8.48;6.38;;;15.60;89.50;;;;;;4997011;28;20209;-87
2023/07/02 00:23:58;;;;;;;14.45;6.90;;;15.60;89.40;;;;;;5016811;28;20694;-87
2023/07/02 00:26:25;;;;;;;12.30;7.60;;;15.70;89.10;;;;;;4999177;28;20212;-88
2023/07/02 00:28:52;;;;;;;14.75;7.88;;;15.70;89.10;;;;;;4999281;28;20177;-88
2023/07/02 00:31:18;;;;;;;13.55;6.97;;;15.70;89.20;;;;;;4999141;28;20178;-89
2023/07/02 00:33:44;;;;;;;12.40;6.63;;;15.70;89.30;;;;;;4999541;28;20731;-89
2023/07/02 00:36:14;;;;;;;9.88;6.30;;;15.60;89.40;;;;;;5016802;28;20677;-88
2023/07/02 00:38:42;;;;;;;13.90;7.43;;;15.60;89.50;;;;;;4999150;28;20200;-88
2023/07/02 00:41:08;;;;;;;13.43;7.30;;;15.60;89.40;;;;;;5016487;28;20170;-89
2023/07/02 00:43:33;;;;;;;13.30;7.40;;;15.60;89.30;;;;;;4998820;28;20197;-89
2023/07/02 00:45:59;;;;;;;8.85;6.78;;;15.60;89.10;;;;;;4998872;28;20243;-89
2023/07/02 00:48:25;;;;;;;10.68;6.43;;;15.60;89.30;;;;;;4998808;28;20189;-89
2023/07/02 00:50:51;;;;;;;12.43;7.78;;;15.50;89.50;;;;;;4998638;28;20181;-89
2023/07/02 00:53:17;;;;;;;17.17;7.68;;;15.40;89.50;;;;;;4998608;28;20213;-88
2023/07/02 00:55:42;;;;;;;13.43;6.75;;;15.40;89.50;;;;;;4998695;28;20668;-89
2023/07/02 00:58:09;;;;;;;17.13;7.90;;;15.40;89.60;;;;;;4998731;28;20525;-89
2023/07/02 01:00:35;;;;;;;7.90;7.10;;;15.30;89.80;;;;;;4999346;28;20181;-89
2023/07/02 01:03:01;;;;;;;13.82;8.13;;;15.50;89.60;;;;;;4998878;28;20225;-89
2023/07/02 01:05:35;;;;;;;17.45;7.22;;;15.50;89.70;;;;;;4998839;28;20188;-89
2023/07/02 01:08:07;;;;;;;10.10;6.85;;;15.50;90.00;;;;;;4998534;28;20168;-89
2023/07/02 01:10:35;;;;;;;21.33;8.38;;;15.50;90.00;;;;;;4998580;28;20186;-89
2023/07/02 01:13:05;;;;;;;16.85;8.15;;;15.50;89.50;;;;;;4999377;28;20197;-89
2023/07/02 01:15:32;;;;;;;11.90;8.27;;;15.60;89.30;;;;;;4998269;28;20280;-89
2023/07/02 01:17:57;;;;;;;8.07;6.72;;;15.70;89.20;;;;;;4998268;28;20180;-89
2023/07/02 01:20:25;;;;;;;15.73;7.65;;;15.60;89.30;;;;;;4998246;28;20653;-89
2023/07/02 01:22:53;;;;;;;15.38;7.47;;;15.60;89.40;;;;;;4998501;28;20197;-89
2023/07/02 01:25:24;;;;;;;15.75;8.25;;;15.60;89.40;;;;;;4998085;28;20187;-89
2023/07/02 01:27:50;;;;;;;12.13;7.47;;;15.60;89.50;;;;;;4998148;28;20547;-89
2023/07/02 01:30:15;;;;;;;11.88;7.45;;;15.60;89.40;;;;;;4998064;28;20235;-89
2023/07/02 01:32:41;;;;;;;10.52;7.22;;;15.50;89.40;;;;;;4998398;28;20284;-88
2023/07/02 01:35:08;;;;;;;15.77;7.53;;;15.50;89.50;;;;;;4997728;28;20211;-89
2023/07/02 01:37:37;;;;;;;10.15;7.80;;;15.50;89.50;;;;;;4998057;28;20177;-89
2023/07/02 01:40:06;;;;;;;13.80;7.47;;;15.50;89.30;;;;;;4998195;28;20174;-89
2023/07/02 01:42:32;;;;;;;14.07;7.68;;;15.50;89.10;;;;;;4997948;28;20173;-89
2023/07/02 01:44:57;;;;;;;11.25;6.70;;;15.50;89.40;;;;;;4998005;28;20705;-88
2023/07/02 01:47:23;;;;;;;8.90;7.28;;;15.40;89.70;;;;;;4998617;28;20236;-89
2023/07/02 01:49:49;;;;;;;17.77;7.88;;;15.40;89.50;;;;;;4997827;28;20212;-88
2023/07/02 01:52:15;;;;;;;16.45;7.07;;;15.40;89.50;;;;;;4997627;28;20185;-89
2023/07/02 01:54:41;;;;;;;13.00;7.93;;;15.40;89.70;;;;;;4998004;28;20276;-88
2023/07/02 01:57:06;;;;;;;12.85;7.70;;;15.30;89.80;;;;;;4997529;28;20296;-89
2023/07/02 01:59:32;;;;;;;15.35;7.40;;;15.30;89.90;;;;;;4997571;28;20695;-89
2023/07/02 02:01:58;;;;;;;19.45;7.32;;;15.30;89.90;;;;;;4997719;28;20621;-89
2023/07/02 02:04:24;;;;;;;12.70;7.22;;;15.30;90.10;;;;;;4997356;28;20204;-89
2023/07/02 02:06:49;;;;;;;16.95;7.85;;;15.20;90.10;;;;;;4998297;28;20192;-89
2023/07/02 02:09:15;;;;;;;16.20;8.10;;;15.20;90.30;;;;;;4997265;28;20280;-89
2023/07/02 02:11:43;;;;;;;14.60;7.63;;;15.10;90.40;;;;;;4997230;28;20177;-89
2023/07/02 02:14:09;;;;;;;11.30;7.20;;;15.00;90.60;;;;;;4997453;28;20205;-89
2023/07/02 02:16:34;;;;;;;10.60;7.90;;;15.10;90.70;;;;;;4997139;28;20263;-89
2023/07/02 02:19:00;;;;;;;14.57;7.90;;;15.00;90.50;;;;;;4997163;28;20644;-89
2023/07/02 02:21:26;;;;;;;11.75;7.93;;;15.10;90.30;;;;;;4997206;28;20264;-89
2023/07/02 02:23:52;;;;;;;14.10;8.02;;;15.20;90.40;;;;;;4996905;28;20205;-89
2023/07/02 02:26:18;;;;;;;10.98;8.35;;;15.00;90.50;;;;;;4996945;28;20177;-89
2023/07/02 02:28:43;;;;;;;12.60;8.00;;;15.00;90.50;;;;;;4997038;28;20272;-89
2023/07/02 02:31:09;;;;;;;15.70;8.70;;;15.10;90.40;;;;;;4996843;28;20181;-89
2023/07/02 02:33:35;;;;;;;10.70;7.40;;;15.10;90.40;;;;;;4997154;28;20220;-89
2023/07/02 02:36:01;;;;;;;24.70;9.77;;;15.00;90.30;;;;;;4996850;28;20228;-90
2023/07/02 02:38:27;;;;;;;14.45;8.80;;;15.10;90.10;;;;;;4997004;28;20177;-90
2023/07/02 02:40:52;;;;;;;12.40;7.73;;;15.00;90.40;;;;;;5014551;28;20570;-89
2023/07/02 02:43:18;;;;;;;16.10;8.30;;;15.10;90.10;;;;;;4996700;28;20642;-89
2023/07/02 02:45:44;;;;;;;13.93;8.30;;;15.00;90.30;;;;;;4995687;28;20273;-89
2023/07/02 02:48:09;;;;;;;15.13;8.87;;;15.00;90.30;;;;;;4996523;28;20174;-89
2023/07/02 02:50:36;;;;;;;15.13;8.50;;;15.00;90.10;;;;;;4996871;28;20227;-89
2023/07/02 02:53:02;;;;;;;12.93;8.00;;;15.10;89.90;;;;;;4996328;28;20209;-90
2023/07/02 02:55:28;;;;;;;13.98;8.63;;;15.10;89.80;;;;;;4996458;28;20549;-89
2023/07/02 02:57:53;;;;;;;14.27;8.80;;;15.00;89.60;;;;;;4996496;28;20219;-89
2023/07/02 03:00:19;;;;;;;14.27;8.70;;;15.00;89.70;;;;;;4996478;28;20256;-89
2023/07/02 03:02:44;;;;;;;13.13;8.80;;;15.00;89.70;;;;;;4996675;28;20287;-89
2023/07/02 03:05:10;;;;;;;19.45;8.93;;;15.00;89.40;;;;;;4996361;28;20182;-89
2023/07/02 03:07:35;;;;;;;21.43;9.10;;;15.00;89.50;;;;;;4996626;28;20177;-89
2023/07/02 03:10:01;;;;;;;13.93;8.75;;;15.00;89.60;;;;;;4996209;28;20173;-89
2023/07/02 03:12:27;;;;;;;12.65;8.38;;;14.90;89.80;;;;;;4996355;28;20216;-89
2023/07/02 03:14:55;;;;;;;13.80;8.80;;;14.90;89.60;;;;;;4996266;28;20178;-89
2023/07/02 03:17:21;;;;;;;15.90;8.80;;;14.90;89.70;;;;;;4996177;28;20260;-89
2023/07/02 03:19:47;;;;;;;15.47;9.27;;;14.90;89.50;;;;;;4996111;28;20177;-90
2023/07/02 03:22:13;;;;;;;18.98;9.00;;;14.90;89.50;;;;;;4996436;28;20235;-89
2023/07/02 03:24:39;;;;;;;19.93;8.57;;;14.80;89.70;;;;;;4996273;28;20539;-89
2023/07/02 03:27:05;;;;;;;12.73;8.47;;;14.80;89.50;;;;;;4996007;28;20186;-89
2023/07/02 03:29:30;;;;;;;17.20;8.83;;;14.80;89.40;;;;;;4995921;28;20180;-89
2023/07/02 03:31:56;;;;;;;24.30;9.23;;;14.80;89.20;;;;;;4995998;28;20184;-90
2023/07/02 03:34:24;;;;;;;13.63;9.00;;;14.80;89.20;;;;;;4995848;28;20208;-89
2023/07/02 03:36:49;;;;;;;14.85;8.55;;;14.80;89.20;;;;;;4996642;28;20212;-90
2023/07/02 03:39:16;;;;;;;16.73;9.67;;;14.80;89.20;;;;;;4995886;28;20189;-89
2023/07/02 03:41:42;;;;;;;18.57;10.27;;;14.80;89.20;;;;;;4996629;28;20177;-90
2023/07/02 03:44:07;;;;;;;24.67;10.73;;;14.70;89.10;;;;;;4995873;28;20201;-90
2023/07/02 03:46:33;;;;;;;23.30;11.17;;;14.80;88.90;;;;;;4995878;28;20181;-89
2023/07/02 03:48:59;;;;;;;23.27;11.00;;;14.80;88.70;;;;;;4995780;28;20534;-90
2023/07/02 03:51:24;;;;;;;20.37;10.43;;;14.80;88.60;;;;;;4996000;28;20711;-89
2023/07/02 03:53:50;;;;;;;19.13;11.07;;;14.80;88.30;;;;;;4995563;28;20323;-89
2023/07/02 03:56:15;;;;;;;23.77;11.00;;;14.80;88.50;;;;;;4996584;28;20197;-89
2023/07/02 03:58:41;;;;;;;23.70;12.00;;;14.80;88.60;;;;;;4999800;28;20619;-89
2023/07/02 04:01:07;;;;;;;27.20;11.80;;;14.80;88.20;;;;;;4999726;28;20550;-89
2023/07/02 04:03:32;;;;;;;26.70;11.82;;;14.80;88.10;;;;;;4999670;28;20665;-89
2023/07/02 04:05:58;;;;;;;25.73;11.40;;;14.80;88.00;;;;;;4999615;28;20185;-90
2023/07/02 04:08:28;;;;;;;30.67;12.20;;;14.80;88.00;;;;;;4999537;28;20178;-89
2023/07/02 04:10:54;;;;;;;25.80;12.13;;;14.80;87.70;;;;;;4999550;28;20260;-89
2023/07/02 04:13:19;;;;;;;24.47;12.30;;;14.80;87.60;;;;;;5000186;28;20635;-89
2023/07/02 04:15:45;;;;;;;28.00;12.33;;;14.80;87.40;;;;;;5000039;28;20251;-89
2023/07/02 04:18:10;;;;;;;25.97;12.27;;;14.80;87.50;;;;;;4999404;28;20545;-90
2023/07/02 04:20:38;;;;;;;26.60;11.97;;;14.80;87.30;;;;;;4999468;28;20235;-89
2023/07/02 04:23:04;;;;;;;22.73;11.13;;;14.80;87.20;;;;;;4999290;28;20288;-89
2023/07/02 04:25:30;;;;;;;31.53;12.37;;;14.80;87.40;;;;;;5000164;28;20181;-90
2023/07/02 04:27:56;;;;;;;29.77;12.13;;;14.80;87.40;;;;;;4999301;28;20320;-89
2023/07/02 04:30:22;;;;;;;22.87;11.37;;;14.80;87.60;;;;;;5000212;28;20178;-89
2023/07/02 04:32:48;;;;;;;25.67;13.13;;;14.80;87.20;;;;;;4999161;28;20300;-90
2023/07/02 04:35:13;;;;;;;23.33;12.20;;;14.80;87.30;;;;;;4999079;28;20235;-89
2023/07/02 04:37:39;;;;;;;33.07;13.13;;;14.80;87.30;;;;;;4999146;28;20649;-90
2023/07/02 04:40:12;;;;;;;27.95;12.65;;;14.80;87.20;;;;;;4999756;28;20599;-89
2023/07/02 04:42:38;;;;;;;30.43;13.20;;;14.80;86.80;;;;;;4998954;28;20165;-89
2023/07/02 04:45:08;;;;;;;26.50;12.67;;;14.90;86.90;;;;;;4998953;28;20178;-89
2023/07/02 04:47:34;;;;;;;27.27;12.77;;;15.00;86.20;;;;;;4998955;28;20587;-89
2023/07/02 04:50:00;;;;;;;32.05;14.35;;;14.90;86.00;;;;;;4999216;28;20177;-89
2023/07/02 04:52:26;;;;;;;32.73;13.57;;;14.90;85.50;;;;;;4998606;28;20736;-90
2023/07/02 04:54:52;;;;;;;30.10;13.97;;;14.90;85.90;;;;;;4998960;28;20212;-89
2023/07/02 04:57:17;;;;;;;27.80;12.83;;;14.80;86.10;;;;;;4998645;28;20240;-90
2023/07/02 04:59:43;;;;;;;20.37;11.97;;;14.80;85.90;;;;;;4998681;28;20178;-89
2023/07/02 05:02:09;;;;;;;25.23;12.07;;;14.90;85.60;;;;;;4998885;28;20174;-90
2023/07/02 05:04:37;;;;;;;35.63;13.70;;;14.90;85.80;;;;;;4998447;28;20193;-90
2023/07/02 05:07:03;;;;;;;32.07;16.47;;;15.00;85.70;;;;;;4998578;28;20214;-90
2023/07/02 05:09:29;;;;;;;25.33;12.60;;;14.90;86.00;;;;;;4997840;28;20173;-89
2023/07/02 05:11:54;;;;;;;28.67;13.23;;;14.90;85.80;;;;;;4998463;28;20200;-90
2023/07/02 05:14:20;;;;;;;34.13;12.93;;;15.00;85.20;;;;;;4998429;28;20204;-89
2023/07/02 05:16:45;;;;;;;27.43;14.40;;;15.00;85.10;;;;;;4998300;28;20296;-90
2023/07/02 05:19:11;;;;;;;24.67;12.57;;;15.00;85.40;;;;;;4998402;28;20260;-90
2023/07/02 05:21:36;;;;;;;30.70;13.57;;;15.10;85.30;;;;;;4998306;28;20641;-89
2023/07/02 05:24:02;;;;;;;28.53;13.53;;;15.20;84.70;;;;;;4998227;28;20193;-89
2023/07/02 05:26:27;;;;;;;30.87;14.17;;;15.20;84.90;;;;;;4998199;28;20694;-90
2023/07/02 05:28:53;;;;;;;31.03;13.93;;;15.30;84.80;;;;;;4998202;28;20735;-90
2023/07/02 05:31:19;;;;;;;33.08;15.13;;;15.40;84.80;;;;;;4998151;28;20224;-90
2023/07/02 05:33:45;;;;;;;29.60;14.85;;;15.50;84.40;;;;;;4998072;28;20708;-89
2023/07/02 05:36:10;;;;;;;24.42;13.25;;;15.50;84.30;;;;;;4999108;28;20209;-89
2023/07/02 05:38:36;;;;;;;34.53;15.07;;;15.70;84.40;;;;;;5016182;28;20668;-90
2023/07/02 05:41:03;;;;;;;40.28;15.95;;;15.70;84.50;;;;;;4998460;28;20200;-90
2023/07/02 05:43:29;;;;;;;27.23;14.00;;;15.80;83.80;;;;;;5015756;28;20212;-90
2023/07/02 05:45:54;;;;;;;34.88;16.13;;;15.90;83.60;;;;;;5015657;28;20679;-91
2023/07/02 05:48:20;;;;;;;26.90;13.65;;;15.90;84.10;;;;;;5015813;28;20208;-90
2023/07/02 05:50:45;;;;;;;28.25;13.60;;;15.70;83.50;;;;;;5015932;28;20550;-90
2023/07/02 05:53:11;;;;;;;35.13;15.40;;;15.70;83.50;;;;;;5015390;28;20205;-91
2023/07/02 05:55:37;;;;;;;34.08;14.80;;;15.70;83.50;;;;;;5016248;28;20200;-90
2023/07/02 05:58:02;;;;;;;28.08;15.25;;;15.80;83.10;;;;;;5015673;28;20184;-91
2023/07/02 06:00:29;;;;;;;33.97;15.77;;;15.80;83.60;;;;;;5015848;28;20189;-90
2023/07/02 06:02:54;;;;;;;28.98;15.80;;;15.90;83.30;;;;;;4998174;28;20205;-90
2023/07/02 06:05:20;;;;;;;29.73;14.63;;;15.90;83.10;;;;;;5015472;28;20190;-90
2023/07/02 06:07:45;;;;;;;25.67;14.57;;;15.90;83.20;;;;;;5015631;28;20185;-91
2023/07/02 06:10:11;;;;;;;28.85;14.85;;;15.90;83.30;;;;;;5015522;28;20669;-91
2023/07/02 06:12:37;;;;;;;34.00;15.45;;;15.90;83.30;;;;;;5015546;28;20173;-90
2023/07/02 06:15:03;;;;;;;36.53;15.43;;;16.00;82.80;;;;;;5015547;28;20201;-90
2023/07/02 06:17:30;;;;;;;35.78;15.95;;;16.00;82.60;;;;;;4998017;28;20724;-90
2023/07/02 06:19:57;;;;;;;30.52;15.20;;;16.00;82.30;;;;;;4997602;28;20180;-91
2023/07/02 06:22:23;;;;;;;28.80;14.32;;;16.20;83.00;;;;;;5015623;28;20613;-90
2023/07/02 06:24:48;;;;;;;34.22;14.70;;;16.10;82.40;;;;;;5015553;28;20668;-91
2023/07/02 06:27:14;;;;;;;35.05;17.20;;;16.30;83.20;;;;;;5015633;28;20178;-90
2023/07/02 06:29:39;;;;;;;25.38;14.82;;;16.30;81.80;;;;;;5015561;28;20667;-90
2023/07/02 06:32:05;;;;;;;29.23;15.68;;;16.50;81.30;;;;;;5015520;28;20188;-90
2023/07/02 06:34:31;;;;;;;34.22;17.30;;;16.70;80.70;;;;;;5015352;28;20190;-90
2023/07/02 06:36:56;;;;;;;27.17;15.15;;;16.60;80.10;;;;;;5015094;28;20288;-90
2023/07/02 06:39:22;;;;;;;30.90;15.88;;;16.40;80.70;;;;;;5014901;28;20178;-91
2023/07/02 06:41:47;;;;;;;27.02;15.32;;;16.30;81.00;;;;;;5015368;28;20173;-88
2023/07/02 06:44:13;;;;;;;31.63;14.82;;;16.20;81.40;;;;;;4998105;28;20205;-89
2023/07/02 06:46:38;;;;;;;28.50;13.63;;;16.20;82.00;;;;;;4997112;28;20239;-88
2023/07/02 06:49:04;;;;;;;35.22;15.75;;;16.10;81.30;;;;;;5014637;28;20170;-89
2023/07/02 06:51:29;;;;;;;36.38;14.40;;;16.10;82.00;;;;;;5014413;28;20181;-89
2023/07/02 06:53:55;;;;;;;30.92;14.57;;;16.00;82.30;;;;;;5014420;28;20220;-88
2023/07/02 06:56:21;;;;;;;34.03;14.38;;;16.00;82.40;;;;;;4996913;28;20210;-90
2023/07/02 06:58:46;;;;;;;36.97;14.93;;;16.00;82.50;;;;;;5014504;28;20169;-88
2023/07/02 07:01:12;;;;;;;37.28;15.93;;;15.90;83.00;;;;;;5014845;28;20162;-88
2023/07/02 07:03:38;;;;;;;29.67;14.52;;;15.90;82.90;;;;;;5014930;28;20211;-91
2023/07/02 07:06:03;;;;;;;28.45;14.73;;;16.00;83.40;;;;;;5021152;28;20180;-90
2023/07/02 07:08:29;;;;;;;36.63;14.73;;;15.90;82.40;;;;;;5016752;28;20180;-90
2023/07/02 07:10:55;;;;;;;30.73;14.95;;;16.00;82.50;;;;;;5014752;28;20185;-90
2023/07/02 07:13:20;;;;;;;36.30;15.57;;;16.10;83.10;;;;;;5014471;28;20615;-90
2023/07/02 07:15:46;;;;;;;32.60;15.65;;;16.10;82.10;;;;;;5014602;28;20189;-90
2023/07/02 07:18:11;;;;;;;31.73;16.65;;;16.20;82.30;;;;;;5014710;28;20167;-90
2023/07/02 07:20:39;;;;;;;38.42;16.13;;;16.20;81.90;;;;;;5014756;28;20218;-90
2023/07/02 07:23:05;;;;;;;31.70;16.25;;;16.20;82.50;;;;;;5014323;28;20186;-91
2023/07/02 07:25:31;;;;;;;33.38;21.38;;;16.30;82.00;;;;;;5014713;28;20184;-90
2023/07/02 07:27:59;;;;;;;35.75;24.30;;;16.30;82.30;;;;;;5015056;28;20181;-90
2023/07/02 07:30:24;;;;;;;45.13;24.83;;;16.50;81.10;;;;;;4996883;28;20182;-90
2023/07/02 07:32:51;;;;;;;31.35;26.95;;;16.70;80.10;;;;;;5013889;28;20554;-90
2023/07/02 07:35:17;;;;;;;35.95;28.77;;;16.90;79.20;;;;;;5014791;28;20181;-90
2023/07/02 07:37:43;;;;;;;40.80;24.23;;;16.80;78.40;;;;;;5014651;28;20637;-91
2023/07/02 07:40:09;;;;;;;39.33;25.38;;;16.80;79.50;;;;;;5014661;28;20184;-90
2023/07/02 07:42:34;;;;;;;32.00;26.73;;;16.80;79.10;;;;;;5014224;28;20603;-90
2023/07/02 07:45:00;;;;;;;41.35;26.52;;;16.70;78.00;;;;;;5014454;28;20687;-90
2023/07/02 07:47:26;;;;;;;37.38;25.90;;;16.70;77.30;;;;;;4996833;28;20181;-90
2023/07/02 07:49:51;;;;;;;36.33;25.45;;;17.00;77.40;;;;;;4996814;28;20189;-90
2023/07/02 07:52:17;;;;;;;27.75;14.98;;;17.00;76.80;;;;;;5014078;28;20176;-90
2023/07/02 07:54:43;;;;;;;35.33;18.25;;;17.20;77.90;;;;;;5013997;28;20355;-89
2023/07/02 07:57:08;;;;;;;25.55;16.67;;;17.00;75.90;;;;;;5014020;28;20602;-90
2023/07/02 07:59:34;;;;;;;29.23;17.23;;;16.70;75.40;;;;;;5014201;28;20228;-90
2023/07/02 08:02:00;;;;;;;30.17;16.10;;;16.60;76.80;;;;;;5014325;28;20177;-91
2023/07/02 08:04:25;;;;;;;34.65;15.07;;;16.50;77.10;;;;;;4996421;28;20255;-91
2023/07/02 08:06:51;;;;;;;27.80;13.70;;;16.10;81.80;;;;;;5014024;28;20712;-90
2023/07/02 08:09:16;;;;;;;25.63;14.30;;;15.80;82.00;;;;;;4996411;28;20181;-88
2023/07/02 08:11:42;;;;;;;27.25;13.43;;;15.70;83.10;;;;;;4996177;28;20186;-89
2023/07/02 08:14:07;;;;;;;32.40;14.82;;;15.50;84.60;;;;;;4995596;28;20212;-88
2023/07/02 08:16:33;;;;;;;30.37;13.53;;;15.50;84.80;;;;;;4995574;28;20197;-89
2023/07/02 08:18:58;;;;;;;33.58;15.48;;;15.60;85.10;;;;;;4995804;28;20169;-88
2023/07/02 08:21:24;;;;;;;28.05;12.93;;;15.50;85.00;;;;;;4995811;28;20177;-89
2023/07/02 08:23:49;;;;;;;31.08;12.55;;;15.50;85.70;;;;;;4995910;28;20190;-89
2023/07/02 08:26:15;;;;;;;32.95;13.50;;;15.80;86.40;;;;;;4997235;28;20188;-90
2023/07/02 08:28:40;;;;;;;30.98;14.45;;;16.20;86.30;;;;;;5014194;28;20174;-90
2023/07/02 08:31:06;;;;;;;16.33;11.27;;;16.50;84.90;;;;;;4996604;28;20173;-90
2023/07/02 08:33:32;;;;;;;25.17;14.32;;;16.80;80.60;;;;;;4996502;28;20208;-90
2023/07/02 08:35:57;;;;;;;26.58;15.85;;;17.30;79.10;;;;;;4995705;28;20747;-90
2023/07/02 08:38:23;;;;;;;27.02;17.38;;;17.20;77.70;;;;;;4996986;28;20180;-90
2023/07/02 08:40:49;;;;;;;24.48;15.30;;;16.80;75.80;;;;;;5013355;28;20232;-90
2023/07/02 08:43:15;;;;;;;27.30;16.58;;;17.00;74.90;;;;;;5013966;28;20684;-90
2023/07/02 08:45:43;;;;;;;23.50;14.40;;;17.20;75.20;;;;;;5016843;28;20181;-90
2023/07/02 08:48:11;;;;;;;31.58;15.43;;;17.30;74.90;;;;;;5017694;28;20178;-90
2023/07/02 08:50:36;;;;;;;20.70;15.32;;;17.10;75.30;;;;;;5016980;28;20706;-89
2023/07/02 08:53:02;;;;;;;28.10;16.00;;;17.00;74.90;;;;;;5016309;28;20212;-89
2023/07/02 08:55:29;;;;;;;30.58;14.90;;;16.80;76.40;;;;;;5016659;28;20217;-89
2023/07/02 08:58:00;;;;;;;19.65;12.02;;;16.60;75.00;;;;;;4998863;28;20177;-88
2023/07/02 09:00:26;;;;;;;17.63;10.30;;;16.20;78.00;;;;;;5017037;28;20154;-91
2023/07/02 09:02:52;;;;;;;26.45;11.18;;;15.50;82.50;;;;;;4999720;28;20557;-90
2023/07/02 09:05:17;;;;;;;34.20;10.93;;;15.20;85.50;;;;;;5016736;28;20176;-90
2023/07/02 09:07:48;;;;;;;19.88;10.75;;;15.00;86.50;;;;;;5000180;28;20209;-90
2023/07/02 09:10:27;;;;;;;21.88;10.60;;;14.90;86.60;;;;;;5017991;28;20530;-90
2023/07/02 09:13:06;;;;;;;19.38;9.20;;;14.80;86.10;;;;;;5017450;28;20192;-91
2023/07/02 09:15:39;;;;;;;21.10;9.35;;;14.90;86.20;;;;;;5017548;28;20268;-90
2023/07/02 09:18:24;;;;;;;19.10;9.98;;;15.00;86.10;;;;;;5018795;28;20169;-89
2023/07/02 09:20:56;;;;;;;18.08;9.32;;;15.30;86.00;;;;;;5002093;28;20172;-91
2023/07/02 09:23:35;;;;;;;17.85;9.95;;;15.90;85.90;;;;;;5015094;28;20205;-92
2023/07/02 09:26:00;;;;;;;22.50;11.13;;;16.20;84.40;;;;;;5007104;28;20174;-91
2023/07/02 09:28:26;;;;;;;18.33;11.18;;;16.70;85.20;;;;;;5017487;28;20238;-92
2023/07/02 09:30:58;;;;;;;17.17;11.13;;;16.80;82.60;;;;;;5000524;28;20188;-90
2023/07/02 09:33:25;;;;;;;23.10;14.18;;;17.30;83.40;;;;;;5001712;28;20220;-91
2023/07/02 09:35:51;;;;;;;23.88;13.15;;;17.10;78.40;;;;;;4999583;28;20205;-91
2023/07/02 09:38:19;;;;;;;18.58;13.85;;;17.20;80.40;;;;;;4998924;28;20173;-90
2023/07/02 09:40:47;;;;;;;13.68;12.15;;;17.20;77.90;;;;;;5016251;28;20184;-90
2023/07/02 09:43:14;;;;;;;34.17;14.45;;;17.00;77.90;;;;;;5016250;28;20240;-89
2023/07/02 09:45:48;;;;;;;27.42;15.52;;;17.10;76.30;;;;;;4999140;28;20181;-90
2023/07/02 09:48:17;;;;;;;20.75;14.10;;;17.50;75.60;;;;;;5016255;28;20576;-90
2023/07/02 09:50:49;;;;;;;17.17;12.68;;;17.70;75.60;;;;;;4998116;28;20268;-89
2023/07/02 09:53:14;;;;;;;17.45;14.38;;;17.90;75.60;;;;;;5015329;28;20275;-90
2023/07/02 09:55:43;;;;;;;27.17;14.90;;;17.80;74.00;;;;;;5015289;28;20601;-90
2023/07/02 09:58:08;;;;;;;20.10;15.02;;;18.00;71.90;;;;;;5015611;28;20177;-90
2023/07/02 10:00:34;;;;;;;25.63;16.65;;;18.20;69.60;;;;;;5016016;28;20170;-90
2023/07/02 10:03:00;;;;;;;24.80;15.57;;;18.30;70.50;;;;;;5017006;28;20170;-91
2023/07/02 10:05:30;;;;;;;19.70;14.98;;;18.20;70.20;;;;;;5016444;28;20169;-90
2023/07/02 10:08:21;;;;;;;16.48;14.88;;;18.20;71.30;;;;;;5016229;28;20173;-90
2023/07/02 10:10:46;;;;;;;16.15;14.45;;;17.60;69.70;;;;;;4998232;28;20177;-90
2023/07/02 10:13:12;;;;;;;19.80;14.18;;;17.80;70.20;;;;;;4998483;28;20210;-90
2023/07/02 10:15:39;;;;;;;18.65;15.70;;;18.30;72.10;;;;;;5015965;28;20197;-90
2023/07/02 10:18:05;;;;;;;19.80;16.58;;;18.40;68.30;;;;;;5000784;28;20232;-91
2023/07/02 10:20:33;;;;;;;19.05;15.00;;;18.50;68.80;;;;;;5016036;28;20575;-90
2023/07/02 10:22:59;;;;;;;24.48;15.90;;;18.80;67.90;;;;;;4998017;28;20200;-90
2023/07/02 10:25:29;;;;;;;23.17;16.80;;;18.90;66.60;;;;;;5016311;28;20165;-89
2023/07/02 10:27:55;;;;;;;18.17;16.20;;;18.90;66.50;;;;;;5015771;28;20165;-91
2023/07/02 10:30:35;;;;;;;29.50;16.33;;;18.70;65.20;;;;;;5016379;28;20178;-87
2023/07/02 10:33:12;;;;;;;23.63;15.88;;;18.20;67.10;;;;;;4997204;28;20622;-86
2023/07/02 10:35:38;;;;;;;19.70;16.10;;;18.20;69.00;;;;;;5014716;28;20192;-86
2023/07/02 10:38:08;;;;;;;23.50;17.70;;;18.20;68.30;;;;;;5015778;28;20173;-90
2023/07/02 10:40:33;;;;;;;19.83;17.08;;;18.50;67.30;;;;;;4998889;28;20173;-89
2023/07/02 10:42:59;;;;;;;25.42;16.50;;;18.60;67.50;;;;;;5015336;28;20192;-90
2023/07/02 10:45:35;;;;;;;18.45;16.55;;;18.50;68.70;;;;;;5016688;28;20173;-90
2023/07/02 10:48:08;;;;;;;19.92;18.05;;;18.90;66.90;;;;;;4998720;28;20208;-89
2023/07/02 10:50:34;;;;;;;19.80;17.75;;;18.80;64.40;;;;;;5015169;28;20169;-89
2023/07/02 10:53:00;;;;;;;20.90;17.45;;;19.00;68.00;;;;;;4997005;28;20213;-88
2023/07/02 10:55:27;;;;;;;22.05;17.50;;;18.60;64.90;;;;;;5014955;28;20170;-89
2023/07/02 10:58:07;;;;;;;24.55;16.38;;;18.40;66.10;;;;;;5015003;28;20161;-87
2023/07/02 11:00:42;;;;;;;18.15;16.33;;;18.20;67.50;;;;;;5014747;28;20162;-87
2023/07/02 11:03:20;;;;;;;18.50;14.80;;;17.70;68.00;;;;;;5014106;28;20272;-87
2023/07/02 11:05:46;;;;;;;14.80;12.48;;;16.80;72.60;;;;;;5013686;28;20308;-86
2023/07/02 11:08:12;;;;;;;13.77;11.75;;;16.40;75.90;;;;;;5013736;28;20201;-87
2023/07/02 11:10:38;;;;;;;18.83;10.65;;;16.20;78.00;;;;;;5014303;28;20173;-86
2023/07/02 11:13:13;;;;;;;25.05;10.63;;;16.30;78.80;;;;;;4996187;28;20204;-86
2023/07/02 11:15:41;;;;;;;22.17;10.10;;;16.50;78.60;;;;;;5014458;28;20193;-86
2023/07/02 11:18:20;;;;;;;14.57;11.20;;;17.20;78.90;;;;;;4996408;28;20177;-86
2023/07/02 11:20:47;;;;;;;19.02;13.00;;;17.60;75.70;;;;;;5014054;28;20157;-87
2023/07/02 11:23:24;;;;;;;17.83;13.02;;;17.50;75.10;;;;;;5013886;28;20193;-86
2023/07/02 11:26:02;;;;;;;20.77;12.52;;;17.40;74.40;;;;;;4996337;28;20236;-86
2023/07/02 11:28:30;;;;;;;18.13;11.52;;;17.30;75.60;;;;;;5013855;28;20165;-85
2023/07/02 11:30:57;;;;;;;16.02;10.95;;;17.10;76.50;;;;;;5013748;28;20190;-86
2023/07/02 11:33:34;;;;;;;17.63;11.40;;;16.90;77.90;;;;;;5013838;28;20200;-86
2023/07/02 11:35:59;;;;;;;13.35;11.60;;;17.40;78.60;;;;;;4996151;28;20308;-85
2023/07/02 11:38:25;;;;;;;14.20;12.02;;;17.80;76.10;;;;;;4995986;28;20695;-87
2023/07/02 11:40:50;;;;;;;20.63;12.27;;;17.70;74.50;;;;;;5013625;28;20641;-87
2023/07/02 11:43:16;;;;;;;20.40;13.60;;;17.40;74.40;;;;;;4996770;28;20201;-86
2023/07/02 11:45:41;;;;;;;20.50;12.68;;;17.10;73.90;;;;;;4996218;28;20178;-86
2023/07/02 11:48:07;;;;;;;25.25;12.50;;;17.10;76.50;;;;;;5013693;28;20204;-85
2023/07/02 11:50:32;;;;;;;24.15;10.15;;;16.80;79.30;;;;;;4995986;28;20173;-86
2023/07/02 11:52:58;;;;;;;18.60;9.45;;;16.60;81.00;;;;;;4995786;28;20220;-86
2023/07/02 11:55:23;;;;;;;11.93;10.05;;;16.80;81.80;;;;;;5013307;28;20200;-86
2023/07/02 11:57:49;;;;;;;12.25;10.40;;;17.30;78.70;;;;;;5013477;28;20165;-86
2023/07/02 12:00:15;;;;;;;17.40;13.88;;;17.20;77.00;;;;;;4995840;28;20173;-85
2023/07/02 12:02:40;;;;;;;15.00;10.90;;;17.40;76.90;;;;;;5013385;28;20675;-86
2023/07/02 12:05:07;;;;;;;19.20;12.32;;;18.00;76.90;;;;;;5013733;28;20291;-86
2023/07/02 12:07:34;;;;;;;21.90;13.52;;;18.30;74.30;;;;;;5013584;28;20224;-87
2023/07/02 12:09:59;;;;;;;19.35;12.68;;;18.60;71.80;;;;;;5013218;28;20169;-88
2023/07/02 12:12:25;;;;;;;19.88;12.63;;;19.10;73.30;;;;;;4995508;28;20193;-85
2023/07/02 12:14:50;;;;;;;18.38;14.75;;;19.00;71.80;;;;;;4995607;28;20177;-87
2023/07/02 12:17:16;;;;;;;18.90;13.98;;;18.50;68.10;;;;;;4996523;28;20197;-87
2023/07/02 12:19:41;;;;;;;24.33;15.23;;;18.40;70.70;;;;;;5017379;28;20545;-85
2023/07/02 12:22:07;;;;;;;15.15;13.38;;;18.30;66.90;;;;;;4999827;28;20550;-87
2023/07/02 12:24:33;;;;;;;25.48;14.68;;;18.70;68.70;;;;;;4999300;28;20552;-87
2023/07/02 12:26:58;;;;;;;23.10;16.42;;;18.90;69.10;;;;;;5017176;28;20530;-85
2023/07/02 12:29:24;;;;;;;24.85;16.48;;;18.60;65.20;;;;;;5017270;28;20174;-86